createdAt,value
2018-04-06T00:00:14.129Z,1012.20
2018-04-06T00:01:15.500Z,1012.22
2018-04-06T00:02:16.873Z,1012.19
2018-04-06T00:03:18.250Z,1012.22
2018-04-06T00:04:19.621Z,1012.29
2018-04-06T00:05:20.994Z,1012.31
2018-04-06T00:06:22.371Z,1012.34
2018-04-06T00:07:23.753Z,1012.31
2018-04-06T00:08:25.120Z,1012.33
2018-04-06T00:09:26.497Z,1012.34
2018-04-06T00:10:27.873Z,1012.40
2018-04-06T00:11:29.245Z,1012.35
2018-04-06T00:12:30.631Z,1012.41
2018-04-06T00:13:31.999Z,1012.42
2018-04-06T00:14:33.384Z,1012.43
2018-04-06T00:15:34.773Z,1012.45
2018-04-06T00:16:36.153Z,1012.46
2018-04-06T00:17:37.575Z,1012.48
2018-04-06T00:18:38.908Z,1012.53
2018-04-06T00:19:40.275Z,1012.49
2018-04-06T00:20:41.661Z,1012.52
2018-04-06T00:21:43.031Z,1012.60
2018-04-06T00:22:44.404Z,1012.63
2018-04-06T00:23:45.782Z,1012.66
2018-04-06T00:24:47.154Z,1012.68
2018-04-06T00:25:48.531Z,1012.64
2018-04-06T00:26:49.908Z,1012.58
2018-04-06T00:27:51.283Z,1012.60
2018-04-06T00:28:52.656Z,1012.51
2018-04-06T00:29:54.033Z,1012.56
2018-04-06T00:30:55.407Z,1012.54
2018-04-06T00:31:56.787Z,1012.60
2018-04-06T00:32:58.168Z,1012.66
2018-04-06T00:33:59.529Z,1012.66
2018-04-06T00:35:00.901Z,1012.67
2018-04-06T00:36:02.271Z,1012.67
2018-04-06T00:37:03.649Z,1012.71
2018-04-06T00:38:05.028Z,1012.71
2018-04-06T00:39:06.401Z,1012.71
2018-04-06T00:40:07.778Z,1012.68
2018-04-06T00:41:09.150Z,1012.63
2018-04-06T00:42:10.525Z,1012.62
2018-04-06T00:43:11.900Z,1012.62
2018-04-06T00:44:13.272Z,1012.63
2018-04-06T00:45:14.643Z,1012.64
2018-04-06T00:46:16.015Z,1012.64
2018-04-06T00:47:17.384Z,1012.66
2018-04-06T00:48:18.759Z,1012.65
2018-04-06T00:49:20.134Z,1012.69
2018-04-06T00:50:21.502Z,1012.68
2018-04-06T00:51:22.884Z,1012.71
2018-04-06T00:52:24.263Z,1012.68
2018-04-06T00:53:25.641Z,1012.77
2018-04-06T00:54:27.011Z,1012.79
2018-04-06T00:55:28.396Z,1012.83
2018-04-06T00:56:29.769Z,1012.81
2018-04-06T00:57:31.139Z,1012.83
2018-04-06T00:58:32.520Z,1012.89
2018-04-06T00:59:33.888Z,1012.87
2018-04-06T01:00:35.264Z,1012.93
2018-04-06T01:01:36.647Z,1012.92
2018-04-06T01:02:38.033Z,1012.96
2018-04-06T01:03:39.401Z,1013.02
2018-04-06T01:04:40.772Z,1012.98
2018-04-06T01:05:42.153Z,1013.01
2018-04-06T01:06:43.532Z,1013.04
2018-04-06T01:07:44.901Z,1013.09
2018-04-06T01:08:46.280Z,1013.08
2018-04-06T01:09:47.665Z,1013.10
2018-04-06T01:10:49.035Z,1013.11
2018-04-06T01:11:50.403Z,1013.16
2018-04-06T01:12:51.779Z,1013.19
2018-04-06T01:13:53.159Z,1013.18
2018-04-06T01:14:54.528Z,1013.18
2018-04-06T01:15:55.905Z,1013.13
2018-04-06T01:16:57.288Z,1013.14
2018-04-06T01:17:58.663Z,1013.15
2018-04-06T01:19:00.038Z,1013.14
2018-04-06T01:20:01.419Z,1013.18
2018-04-06T01:21:02.796Z,1013.16
2018-04-06T01:22:04.183Z,1013.17
2018-04-06T01:23:05.546Z,1013.23
2018-04-06T01:24:06.930Z,1013.23
2018-04-06T01:25:08.302Z,1013.27
2018-04-06T01:26:09.684Z,1013.29
2018-04-06T01:27:11.064Z,1013.27
2018-04-06T01:28:13.418Z,1013.27
2018-04-06T01:29:14.800Z,1013.25
2018-04-06T01:30:16.175Z,1013.28
2018-04-06T01:31:17.546Z,1013.27
2018-04-06T01:32:18.916Z,1013.28
2018-04-06T01:33:20.291Z,1013.21
2018-04-06T01:34:21.662Z,1013.30
2018-04-06T01:35:23.040Z,1013.27
2018-04-06T01:36:24.417Z,1013.28
2018-04-06T01:37:25.795Z,1013.24
2018-04-06T01:38:27.173Z,1013.26
2018-04-06T01:39:28.555Z,1013.28
2018-04-06T01:40:30.577Z,1013.30
2018-04-06T01:41:31.965Z,1013.32
2018-04-06T01:42:33.333Z,1013.32
2018-04-06T01:43:34.698Z,1013.33
2018-04-06T01:44:36.073Z,1013.34
2018-04-06T01:45:37.448Z,1013.37
2018-04-06T01:46:38.829Z,1013.37
2018-04-06T01:47:40.201Z,1013.41
2018-04-06T01:48:41.572Z,1013.39
2018-04-06T01:49:42.940Z,1013.38
2018-04-06T01:50:44.321Z,1013.38
2018-04-06T01:51:45.694Z,1013.34
2018-04-06T01:52:47.064Z,1013.34
2018-04-06T01:53:49.168Z,1013.36
2018-04-06T01:54:50.540Z,1013.37
2018-04-06T01:55:51.914Z,1013.41
2018-04-06T01:56:53.291Z,1013.43
2018-04-06T01:57:54.662Z,1013.43
2018-04-06T01:58:56.040Z,1013.48
2018-04-06T01:59:57.424Z,1013.45
2018-04-06T02:00:58.785Z,1013.44
2018-04-06T02:02:00.161Z,1013.53
2018-04-06T02:03:01.538Z,1013.58
2018-04-06T02:04:02.907Z,1013.58
2018-04-06T02:05:04.278Z,1013.59
2018-04-06T02:06:05.653Z,1013.60
2018-04-06T02:07:07.033Z,1013.55
2018-04-06T02:08:08.405Z,1013.58
2018-04-06T02:09:09.774Z,1013.55
2018-04-06T02:10:11.157Z,1013.58
2018-04-06T02:11:12.524Z,1013.58
2018-04-06T02:12:14.601Z,1013.60
2018-04-06T02:13:15.972Z,1013.59
2018-04-06T02:14:17.346Z,1013.61
2018-04-06T02:15:18.721Z,1013.64
2018-04-06T02:16:20.093Z,1013.67
2018-04-06T02:17:21.463Z,1013.69
2018-04-06T02:18:22.840Z,1013.70
2018-04-06T02:19:24.208Z,1013.67
2018-04-06T02:20:25.592Z,1013.73
2018-04-06T02:21:26.962Z,1013.76
2018-04-06T02:22:28.341Z,1013.80
2018-04-06T02:23:29.711Z,1013.79
2018-04-06T02:24:31.131Z,1013.75
2018-04-06T02:25:32.468Z,1013.73
2018-04-06T02:26:33.841Z,1013.74
2018-04-06T02:27:35.224Z,1013.69
2018-04-06T02:28:36.601Z,1013.73
2018-04-06T02:29:37.979Z,1013.74
2018-04-06T02:30:39.357Z,1013.82
2018-04-06T02:31:40.736Z,1013.85
2018-04-06T02:32:42.108Z,1013.84
2018-04-06T02:33:43.473Z,1013.83
2018-04-06T02:34:44.850Z,1013.80
2018-04-06T02:35:46.228Z,1013.78
2018-04-06T02:36:47.613Z,1013.79
2018-04-06T02:37:48.986Z,1013.84
2018-04-06T02:38:50.368Z,1013.86
2018-04-06T02:39:51.737Z,1013.84
2018-04-06T02:40:53.109Z,1013.86
2018-04-06T02:41:54.480Z,1013.86
2018-04-06T02:42:55.849Z,1013.85
2018-04-06T02:43:57.234Z,1013.86
2018-04-06T02:44:58.610Z,1013.89
2018-04-06T02:45:59.976Z,1013.94
2018-04-06T02:47:01.349Z,1013.95
2018-04-06T02:48:02.733Z,1013.92
2018-04-06T02:49:04.108Z,1013.94
2018-04-06T02:50:05.488Z,1013.94
2018-04-06T02:51:06.856Z,1014.01
2018-04-06T02:52:08.237Z,1014.02
2018-04-06T02:53:09.612Z,1014.06
2018-04-06T02:54:10.996Z,1014.03
2018-04-06T02:55:12.370Z,1013.99
2018-04-06T02:56:13.739Z,1014.05
2018-04-06T02:57:15.115Z,1013.99
2018-04-06T02:58:16.491Z,1014.05
2018-04-06T02:59:17.871Z,1014.02
2018-04-06T03:00:19.260Z,1014.02
2018-04-06T03:01:20.630Z,1014.01
2018-04-06T03:02:22.011Z,1014.05
2018-04-06T03:03:23.382Z,1014.03
2018-04-06T03:04:24.756Z,1014.02
2018-04-06T03:05:26.134Z,1014.00
2018-04-06T03:06:27.515Z,1014.01
2018-04-06T03:07:28.875Z,1013.95
2018-04-06T03:08:30.258Z,1013.94
2018-04-06T03:09:31.625Z,1013.96
2018-04-06T03:10:33.010Z,1014.02
2018-04-06T03:11:34.416Z,1014.06
2018-04-06T03:12:35.794Z,1014.11
2018-04-06T03:13:37.155Z,1014.11
2018-04-06T03:14:38.542Z,1014.16
2018-04-06T03:15:39.910Z,1014.13
2018-04-06T03:16:41.282Z,1014.11
2018-04-06T03:17:42.668Z,1014.09
2018-04-06T03:18:44.037Z,1014.16
2018-04-06T03:19:45.415Z,1014.14
2018-04-06T03:20:46.786Z,1014.15
2018-04-06T03:21:48.158Z,1014.20
2018-04-06T03:22:49.532Z,1014.21
2018-04-06T03:23:50.909Z,1014.24
2018-04-06T03:24:52.279Z,1014.21
2018-04-06T03:25:53.650Z,1014.28
2018-04-06T03:26:55.027Z,1014.20
2018-04-06T03:27:56.409Z,1014.23
2018-04-06T03:28:57.775Z,1014.24
2018-04-06T03:29:59.145Z,1014.29
2018-04-06T03:31:00.526Z,1014.36
2018-04-06T03:32:01.905Z,1014.33
2018-04-06T03:33:03.278Z,1014.33
2018-04-06T03:34:04.658Z,1014.34
2018-04-06T03:35:06.728Z,1014.31
2018-04-06T03:36:08.101Z,1014.33
2018-04-06T03:37:09.476Z,1014.33
2018-04-06T03:38:10.843Z,1014.35
2018-04-06T03:39:12.228Z,1014.38
2018-04-06T03:40:13.600Z,1014.42
2018-04-06T03:41:14.976Z,1014.39
2018-04-06T03:42:16.356Z,1014.43
2018-04-06T03:43:17.738Z,1014.38
2018-04-06T03:44:19.112Z,1014.40
2018-04-06T03:45:20.480Z,1014.40
2018-04-06T03:46:21.854Z,1014.40
2018-04-06T03:47:23.231Z,1014.45
2018-04-06T03:48:24.613Z,1014.48
2018-04-06T03:49:26.739Z,1014.44
2018-04-06T03:50:28.115Z,1014.42
2018-04-06T03:51:29.491Z,1014.41
2018-04-06T03:52:30.863Z,1014.42
2018-04-06T03:53:32.237Z,1014.42
2018-04-06T03:54:33.609Z,1014.48
2018-04-06T03:55:34.985Z,1014.48
2018-04-06T03:56:36.371Z,1014.47
2018-04-06T03:57:37.742Z,1014.50
2018-04-06T03:58:39.126Z,1014.49
2018-04-06T03:59:40.502Z,1014.51
2018-04-06T04:00:41.878Z,1014.50
2018-04-06T04:01:43.245Z,1014.51
2018-04-06T04:02:44.626Z,1014.49
2018-04-06T04:03:46.000Z,1014.55
2018-04-06T04:04:47.368Z,1014.51
2018-04-06T04:05:48.747Z,1014.48
2018-04-06T04:06:50.127Z,1014.47
2018-04-06T04:07:51.494Z,1014.47
2018-04-06T04:08:52.878Z,1014.45
2018-04-06T04:09:54.259Z,1014.55
2018-04-06T04:10:55.622Z,1014.52
2018-04-06T04:11:57.046Z,1014.57
2018-04-06T04:12:58.376Z,1014.59
2018-04-06T04:13:59.748Z,1014.58
2018-04-06T04:15:01.128Z,1014.58
2018-04-06T04:16:02.500Z,1014.60
2018-04-06T04:17:03.880Z,1014.56
2018-04-06T04:18:05.249Z,1014.57
2018-04-06T04:19:06.627Z,1014.57
2018-04-06T04:20:07.996Z,1014.60
2018-04-06T04:21:09.377Z,1014.61
2018-04-06T04:22:10.756Z,1014.61
2018-04-06T04:23:12.125Z,1014.64
2018-04-06T04:24:13.501Z,1014.70
2018-04-06T04:25:14.876Z,1014.68
2018-04-06T04:26:16.247Z,1014.73
2018-04-06T04:27:17.621Z,1014.69
2018-04-06T04:28:18.996Z,1014.70
2018-04-06T04:29:20.383Z,1014.76
2018-04-06T04:30:22.608Z,1014.81
2018-04-06T04:31:23.990Z,1014.78
2018-04-06T04:32:25.363Z,1014.76
2018-04-06T04:33:26.740Z,1014.66
2018-04-06T04:34:28.167Z,1014.73
2018-04-06T04:35:29.501Z,1014.77
2018-04-06T04:36:30.875Z,1014.80
2018-04-06T04:37:32.251Z,1014.78
2018-04-06T04:38:33.632Z,1014.76
2018-04-06T04:39:35.013Z,1014.76
2018-04-06T04:40:36.382Z,1014.80
2018-04-06T04:41:37.764Z,1014.86
2018-04-06T04:42:39.144Z,1014.83
2018-04-06T04:43:40.526Z,1014.85
2018-04-06T04:44:41.903Z,1014.83
2018-04-06T04:45:43.283Z,1014.81
2018-04-06T04:46:44.713Z,1014.85
2018-04-06T04:47:46.040Z,1014.88
2018-04-06T04:48:47.419Z,1014.95
2018-04-06T04:49:49.611Z,1014.89
2018-04-06T04:50:50.985Z,1014.89
2018-04-06T04:51:52.372Z,1014.88
2018-04-06T04:52:53.754Z,1014.92
2018-04-06T04:53:55.123Z,1014.97
2018-04-06T04:54:56.489Z,1014.95
2018-04-06T04:55:57.864Z,1014.93
2018-04-06T04:56:59.255Z,1014.96
2018-04-06T04:58:00.632Z,1014.92
2018-04-06T04:59:02.006Z,1014.95
2018-04-06T05:00:03.389Z,1014.96
2018-04-06T05:01:04.762Z,1014.95
2018-04-06T05:02:06.160Z,1014.94
2018-04-06T05:03:07.532Z,1014.98
2018-04-06T05:04:08.912Z,1014.95
2018-04-06T05:05:10.294Z,1014.97
2018-04-06T05:06:11.677Z,1014.98
2018-04-06T05:07:13.064Z,1015.01
2018-04-06T05:08:14.441Z,1015.02
2018-04-06T05:09:15.822Z,1015.05
2018-04-06T05:10:17.156Z,1015.00
2018-04-06T05:11:18.538Z,1015.01
2018-04-06T05:12:19.906Z,1015.02
2018-04-06T05:13:21.286Z,1015.05
2018-04-06T05:14:22.667Z,1015.07
2018-04-06T05:15:24.049Z,1015.09
2018-04-06T05:16:25.453Z,1015.12
2018-04-06T05:17:26.805Z,1015.12
2018-04-06T05:18:28.191Z,1015.11
2018-04-06T05:19:29.564Z,1015.09
2018-04-06T05:20:30.945Z,1015.13
2018-04-06T05:21:32.321Z,1015.15
2018-04-06T05:22:33.693Z,1015.15
2018-04-06T05:23:35.074Z,1015.11
2018-04-06T05:24:36.525Z,1015.13
2018-04-06T05:25:37.796Z,1015.13
2018-04-06T05:26:39.171Z,1015.16
2018-04-06T05:27:40.560Z,1015.16
2018-04-06T05:28:41.948Z,1015.13
2018-04-06T05:29:43.317Z,1015.07
2018-04-06T05:30:44.692Z,1015.16
2018-04-06T05:31:46.064Z,1015.15
2018-04-06T05:32:47.438Z,1015.21
2018-04-06T05:33:48.824Z,1015.19
2018-04-06T05:34:50.202Z,1015.21
2018-04-06T05:35:51.584Z,1015.21
2018-04-06T05:36:52.971Z,1015.20
2018-04-06T05:37:54.345Z,1015.22
2018-04-06T05:38:55.716Z,1015.28
2018-04-06T05:39:57.093Z,1015.30
2018-04-06T05:40:58.475Z,1015.36
2018-04-06T05:41:59.860Z,1015.34
2018-04-06T05:43:01.233Z,1015.34
2018-04-06T05:44:02.617Z,1015.33
2018-04-06T05:45:03.991Z,1015.34
2018-04-06T05:46:05.369Z,1015.37
2018-04-06T05:47:06.744Z,1015.37
2018-04-06T05:48:08.123Z,1015.36
2018-04-06T05:49:09.509Z,1015.42
2018-04-06T05:50:10.901Z,1015.42
2018-04-06T05:51:12.279Z,1015.38
2018-04-06T05:52:13.667Z,1015.40
2018-04-06T05:53:15.034Z,1015.38
2018-04-06T05:54:16.419Z,1015.46
2018-04-06T05:55:17.792Z,1015.40
2018-04-06T05:56:19.180Z,1015.45
2018-04-06T05:57:20.554Z,1015.46
2018-04-06T05:58:21.969Z,1015.52
2018-04-06T05:59:23.318Z,1015.52
2018-04-06T06:00:24.703Z,1015.53
2018-04-06T06:01:26.617Z,1015.53
2018-04-06T06:02:28.010Z,1015.57
2018-04-06T06:03:29.391Z,1015.59
2018-04-06T06:04:30.766Z,1015.64
2018-04-06T06:05:32.134Z,1015.64
2018-04-06T06:06:33.518Z,1015.62
2018-04-06T06:07:34.896Z,1015.67
2018-04-06T06:08:36.289Z,1015.67
2018-04-06T06:09:37.673Z,1015.66
2018-04-06T06:10:39.049Z,1015.62
2018-04-06T06:11:40.438Z,1015.62
2018-04-06T06:12:41.819Z,1015.70
2018-04-06T06:13:43.197Z,1015.75
2018-04-06T06:14:44.578Z,1015.76
2018-04-06T06:15:45.968Z,1015.74
2018-04-06T06:16:47.345Z,1015.78
2018-04-06T06:17:48.778Z,1015.77
2018-04-06T06:18:50.105Z,1015.72
2018-04-06T06:19:51.487Z,1015.77
2018-04-06T06:20:52.867Z,1015.72
2018-04-06T06:21:54.252Z,1015.82
2018-04-06T06:22:55.639Z,1016.04
2018-04-06T06:23:57.684Z,1016.00
2018-04-06T06:24:59.117Z,1015.83
2018-04-06T06:26:00.444Z,1015.91
2018-04-06T06:27:01.832Z,1015.88
2018-04-06T06:28:03.216Z,1015.92
2018-04-06T06:29:04.631Z,1015.88
2018-04-06T06:30:05.986Z,1015.95
2018-04-06T06:31:07.362Z,1015.91
2018-04-06T06:32:08.749Z,1015.94
2018-04-06T06:33:10.128Z,1016.07
2018-04-06T06:34:11.508Z,1016.09
2018-04-06T06:35:12.891Z,1016.20
2018-04-06T06:36:14.275Z,1016.16
2018-04-06T06:37:15.658Z,1016.13
2018-04-06T06:38:17.044Z,1016.00
2018-04-06T06:39:18.431Z,1015.91
2018-04-06T06:40:19.818Z,1016.02
2018-04-06T06:41:22.055Z,1016.06
2018-04-06T06:42:23.428Z,1016.00
2018-04-06T06:43:25.725Z,1015.98
2018-04-06T06:44:27.112Z,1016.00
2018-04-06T06:45:28.495Z,1016.02
2018-04-06T06:46:29.890Z,1016.04
2018-04-06T06:47:31.283Z,1016.01
2018-04-06T06:48:32.673Z,1016.07
2018-04-06T06:49:34.063Z,1016.10
2018-04-06T06:50:35.455Z,1016.08
2018-04-06T06:51:36.847Z,1016.10
2018-04-06T06:52:38.239Z,1016.14
2018-04-06T06:53:39.625Z,1016.15
2018-04-06T06:54:41.020Z,1016.20
2018-04-06T06:55:42.396Z,1016.20
2018-04-06T06:56:43.795Z,1016.24
2018-04-06T06:57:45.185Z,1016.25
2018-04-06T06:58:46.571Z,1016.27
2018-04-06T06:59:47.956Z,1016.32
2018-04-06T07:00:49.346Z,1016.28
2018-04-06T07:01:50.733Z,1016.27
2018-04-06T07:02:52.114Z,1016.35
2018-04-06T07:03:53.507Z,1016.41
2018-04-06T07:04:54.899Z,1016.38
2018-04-06T07:05:56.290Z,1016.26
2018-04-06T07:06:57.677Z,1016.24
2018-04-06T07:07:59.076Z,1016.22
2018-04-06T07:09:00.475Z,1016.28
2018-04-06T07:10:01.867Z,1016.28
2018-04-06T07:11:03.282Z,1016.28
2018-04-06T07:12:04.666Z,1016.30
2018-04-06T07:13:06.069Z,1016.26
2018-04-06T07:14:07.473Z,1016.22
2018-04-06T07:15:08.810Z,1016.22
2018-04-06T07:16:10.199Z,1016.26
2018-04-06T07:17:11.597Z,1016.28
2018-04-06T07:18:12.980Z,1016.29
2018-04-06T07:19:14.382Z,1016.30
2018-04-06T07:20:15.780Z,1016.27
2018-04-06T07:21:17.176Z,1016.28
2018-04-06T07:22:18.568Z,1016.30
2018-04-06T07:23:19.965Z,1016.32
2018-04-06T07:24:21.362Z,1016.33
2018-04-06T07:25:22.758Z,1016.38
2018-04-06T07:26:24.162Z,1016.39
2018-04-06T07:27:25.550Z,1016.33
2018-04-06T07:28:26.948Z,1016.43
2018-04-06T07:29:28.336Z,1016.55
2018-04-06T07:30:29.736Z,1016.82
2018-04-06T07:31:31.123Z,1017.04
2018-04-06T07:32:32.515Z,1017.45
2018-04-06T07:33:33.916Z,1017.65
2018-04-06T07:34:35.319Z,1017.92
2018-04-06T07:35:36.716Z,1017.87
2018-04-06T07:36:38.108Z,1017.79
2018-04-06T07:37:39.496Z,1017.79
2018-04-06T07:38:40.897Z,1017.92
2018-04-06T07:39:42.291Z,1017.92
2018-04-06T07:40:43.694Z,1018.00
2018-04-06T07:41:45.087Z,1017.98
2018-04-06T07:42:46.478Z,1018.06
2018-04-06T07:43:47.871Z,1018.05
2018-04-06T07:44:49.262Z,1017.99
2018-04-06T07:45:50.669Z,1017.98
2018-04-06T07:46:52.061Z,1017.35
2018-04-06T07:47:53.474Z,1016.75
2018-04-06T07:48:54.859Z,1016.59
2018-04-06T07:49:56.263Z,1016.59
2018-04-06T07:50:57.657Z,1016.58
2018-04-06T07:51:59.051Z,1016.60
2018-04-06T07:53:01.128Z,1016.58
2018-04-06T07:54:02.523Z,1016.60
2018-04-06T07:55:03.929Z,1016.60
2018-04-06T07:56:05.325Z,1016.72
2018-04-06T07:57:06.739Z,1016.89
2018-04-06T07:58:08.123Z,1017.23
2018-04-06T07:59:09.530Z,1017.00
2018-04-06T08:00:10.972Z,1016.79
2018-04-06T08:01:12.325Z,1016.82
2018-04-06T08:02:13.714Z,1016.84
2018-04-06T08:03:15.108Z,1017.03
2018-04-06T08:04:16.500Z,1017.26
2018-04-06T08:05:17.898Z,1017.40
2018-04-06T08:06:19.293Z,1017.37
2018-04-06T08:07:20.689Z,1017.15
2018-04-06T08:08:22.092Z,1016.96
2018-04-06T08:09:23.495Z,1017.00
2018-04-06T08:10:24.890Z,1017.07
2018-04-06T08:11:26.281Z,1017.21
2018-04-06T08:12:27.676Z,1017.31
2018-04-06T08:13:29.090Z,1017.54
2018-04-06T08:14:30.475Z,1017.94
2018-04-06T08:15:31.875Z,1017.62
2018-04-06T08:16:33.287Z,1017.03
2018-04-06T08:17:34.691Z,1016.98
2018-04-06T08:18:36.085Z,1017.02
2018-04-06T08:19:37.484Z,1017.04
2018-04-06T08:20:38.882Z,1017.08
2018-04-06T08:21:40.280Z,1017.08
2018-04-06T08:22:41.689Z,1017.14
2018-04-06T08:23:43.078Z,1017.09
2018-04-06T08:24:44.479Z,1017.11
2018-04-06T08:25:45.873Z,1017.27
2018-04-06T08:26:47.277Z,1018.57
2018-04-06T08:27:48.668Z,1019.66
2018-04-06T08:28:50.062Z,1019.71
2018-04-06T08:29:51.474Z,1019.60
2018-04-06T08:30:52.872Z,1019.54
2018-04-06T08:31:54.279Z,1019.76
2018-04-06T08:32:55.677Z,1019.80
2018-04-06T08:33:57.081Z,1019.06
2018-04-06T08:34:58.520Z,1017.58
2018-04-06T08:35:59.863Z,1017.21
2018-04-06T08:37:01.266Z,1017.23
2018-04-06T08:38:02.669Z,1017.20
2018-04-06T08:39:04.067Z,1017.14
2018-04-06T08:40:06.419Z,1017.16
2018-04-06T08:41:07.826Z,1017.08
2018-04-06T08:42:09.221Z,1017.11
2018-04-06T08:43:10.614Z,1017.10
2018-04-06T08:44:12.015Z,1017.12
2018-04-06T08:45:13.406Z,1017.14
2018-04-06T08:46:14.803Z,1017.19
2018-04-06T08:47:16.207Z,1017.20
2018-04-06T08:48:17.606Z,1017.17
2018-04-06T08:49:19.012Z,1017.25
2018-04-06T08:50:20.414Z,1017.21
2018-04-06T08:51:21.814Z,1017.29
2018-04-06T08:52:23.210Z,1017.24
2018-04-06T08:53:24.612Z,1017.36
2018-04-06T08:54:26.017Z,1017.42
2018-04-06T08:55:27.411Z,1017.68
2018-04-06T08:56:28.808Z,1019.25
2018-04-06T08:57:30.202Z,1020.40
2018-04-06T08:58:31.600Z,1020.57
2018-04-06T08:59:32.999Z,1020.94
2018-04-06T09:00:34.404Z,1021.20
2018-04-06T09:01:35.790Z,1021.14
2018-04-06T09:02:37.198Z,1021.18
2018-04-06T09:03:38.588Z,1021.90
2018-04-06T09:04:40.012Z,1023.38
2018-04-06T09:05:41.386Z,1024.57
2018-04-06T09:06:42.793Z,1024.83
2018-04-06T09:07:44.179Z,1024.33
2018-04-06T09:08:45.570Z,1024.08
2018-04-06T09:09:46.971Z,1024.14
2018-04-06T09:10:48.373Z,1024.73
2018-04-06T09:11:49.776Z,1025.63
2018-04-06T09:12:51.179Z,1025.98
2018-04-06T09:13:52.584Z,1026.40
2018-04-06T09:14:53.975Z,1026.74
2018-04-06T09:15:55.381Z,1026.69
2018-04-06T09:16:56.778Z,1026.70
2018-04-06T09:17:58.177Z,1026.80
2018-04-06T09:18:59.581Z,1026.94
2018-04-06T09:20:00.972Z,1027.21
2018-04-06T09:21:02.372Z,1027.27
2018-04-06T09:22:03.775Z,1027.31
2018-04-06T09:23:05.180Z,1027.31
2018-04-06T09:24:06.571Z,1027.97
2018-04-06T09:25:07.978Z,1028.34
2018-04-06T09:26:09.381Z,1028.80
2018-04-06T09:27:10.784Z,1028.84
2018-04-06T09:28:12.198Z,1028.52
2018-04-06T09:29:13.597Z,1028.88
2018-04-06T09:30:15.000Z,1029.35
2018-04-06T09:31:16.403Z,1029.86
2018-04-06T09:32:17.821Z,1030.42
2018-04-06T09:33:19.220Z,1030.38
2018-04-06T09:34:20.641Z,1030.55
2018-04-06T09:35:22.049Z,1031.46
2018-04-06T09:36:23.456Z,1030.42
2018-04-06T09:37:24.862Z,1030.50
2018-04-06T09:38:27.090Z,1031.53
2018-04-06T09:39:28.505Z,1031.65
2018-04-06T09:40:29.918Z,1032.34
2018-04-06T09:41:31.328Z,1032.02
2018-04-06T09:42:32.735Z,1031.22
2018-04-06T09:43:34.964Z,1030.50
2018-04-06T09:44:36.370Z,1029.73
2018-04-06T09:45:37.781Z,1029.46
2018-04-06T09:46:39.814Z,1028.55
2018-04-06T09:47:41.216Z,1028.41
2018-04-06T09:48:42.633Z,1028.59
2018-04-06T09:49:44.052Z,1028.32
2018-04-06T09:50:45.466Z,1028.48
2018-04-06T09:51:46.880Z,1028.85
2018-04-06T09:52:48.283Z,1028.91
2018-04-06T09:53:49.705Z,1029.17
2018-04-06T09:54:51.109Z,1029.67
2018-04-06T09:55:52.518Z,1030.51
2018-04-06T09:56:53.935Z,1029.27
2018-04-06T09:57:55.347Z,1029.00
2018-04-06T09:58:56.762Z,1030.73
2018-04-06T09:59:58.169Z,1030.49
2018-04-06T10:00:59.580Z,1029.82
2018-04-06T10:02:01.528Z,1030.68
2018-04-06T10:03:02.943Z,1029.06
2018-04-06T10:04:04.354Z,1029.71
2018-04-06T10:05:05.769Z,1030.99
2018-04-06T10:06:07.189Z,1030.98
2018-04-06T10:07:08.599Z,1030.34
2018-04-06T10:08:10.007Z,1029.88
2018-04-06T10:09:11.437Z,1030.00
2018-04-06T10:10:12.842Z,1029.11
2018-04-06T10:11:14.255Z,1029.10
2018-04-06T10:12:15.670Z,1028.65
2018-04-06T10:13:17.077Z,1028.43
2018-04-06T10:14:18.446Z,1027.86
2018-04-06T10:15:19.862Z,1027.50
2018-04-06T10:16:21.328Z,1027.58
2018-04-06T10:17:22.741Z,1027.57
2018-04-06T10:18:24.159Z,1026.81
2018-04-06T10:19:25.584Z,1026.41
2018-04-06T10:20:27.002Z,1026.29
2018-04-06T10:21:28.421Z,1025.32
2018-04-06T10:22:29.836Z,1024.33
2018-04-06T10:23:31.255Z,1023.69
2018-04-06T10:24:32.668Z,1023.07
2018-04-06T10:25:34.093Z,1022.50
2018-04-06T10:26:35.497Z,1022.06
2018-04-06T10:27:36.911Z,1021.68
2018-04-06T10:28:38.323Z,1021.47
2018-04-06T10:29:39.750Z,1021.05
2018-04-06T10:30:41.841Z,1020.56
2018-04-06T10:31:43.255Z,1020.20
2018-04-06T10:32:44.689Z,1019.94
2018-04-06T10:33:46.091Z,1019.71
2018-04-06T10:34:47.509Z,1019.59
2018-04-06T10:35:48.935Z,1019.41
2018-04-06T10:36:50.348Z,1019.37
2018-04-06T10:37:51.777Z,1019.31
2018-04-06T10:38:53.192Z,1019.16
2018-04-06T10:39:54.606Z,1019.03
2018-04-06T10:40:56.027Z,1018.95
2018-04-06T10:41:57.437Z,1018.80
2018-04-06T10:42:58.862Z,1018.54
2018-04-06T10:44:00.275Z,1018.39
2018-04-06T10:45:01.680Z,1018.32
2018-04-06T10:46:03.093Z,1018.39
2018-04-06T10:47:04.512Z,1018.24
2018-04-06T10:48:05.930Z,1018.18
2018-04-06T10:49:07.344Z,1018.20
2018-04-06T10:50:08.755Z,1018.12
2018-04-06T10:51:10.179Z,1018.09
2018-04-06T10:52:11.582Z,1018.04
2018-04-06T10:53:13.001Z,1018.04
2018-04-06T10:54:14.411Z,1018.06
2018-04-06T10:55:15.827Z,1018.03
2018-04-06T10:56:17.238Z,1018.03
2018-04-06T10:57:18.664Z,1018.02
2018-04-06T10:58:20.087Z,1018.03
2018-04-06T10:59:21.490Z,1017.98
2018-04-06T11:00:22.907Z,1018.00
2018-04-06T11:01:24.321Z,1018.01
2018-04-06T11:02:25.736Z,1017.99
2018-04-06T11:03:27.158Z,1017.97
2018-04-06T11:04:28.570Z,1017.92
2018-04-06T11:05:30.015Z,1017.93
2018-04-06T11:06:31.430Z,1017.86
2018-04-06T11:07:32.846Z,1017.86
2018-04-06T11:08:34.259Z,1017.82
2018-04-06T11:09:35.673Z,1017.74
2018-04-06T11:10:37.088Z,1017.56
2018-04-06T11:11:38.502Z,1017.37
2018-04-06T11:12:39.921Z,1017.42
2018-04-06T11:13:41.336Z,1017.41
2018-04-06T11:14:42.735Z,1017.45
2018-04-06T11:15:44.155Z,1017.45
2018-04-06T11:16:45.558Z,1017.39
2018-04-06T11:17:46.971Z,1017.39
2018-04-06T11:18:49.025Z,1017.40
2018-04-06T11:19:50.442Z,1017.38
2018-04-06T11:20:51.840Z,1017.61
2018-04-06T11:21:53.255Z,1017.79
2018-04-06T11:22:54.688Z,1017.82
2018-04-06T11:23:56.065Z,1017.87
2018-04-06T11:24:57.479Z,1017.84
2018-04-06T11:25:58.886Z,1017.85
2018-04-06T11:27:00.288Z,1017.90
2018-04-06T11:28:01.701Z,1017.93
2018-04-06T11:29:03.103Z,1017.96
2018-04-06T11:30:04.510Z,1017.98
2018-04-06T11:31:05.915Z,1017.91
2018-04-06T11:32:07.336Z,1017.94
2018-04-06T11:33:08.730Z,1017.98
2018-04-06T11:34:10.134Z,1017.91
2018-04-06T11:35:11.544Z,1017.89
2018-04-06T11:36:12.961Z,1017.94
2018-04-06T11:37:14.364Z,1017.97
2018-04-06T11:38:15.759Z,1017.97
2018-04-06T11:39:17.170Z,1017.93
2018-04-06T11:40:18.577Z,1017.86
2018-04-06T11:41:19.989Z,1017.85
2018-04-06T11:42:21.410Z,1017.85
2018-04-06T11:43:22.826Z,1017.86
2018-04-06T11:44:24.238Z,1017.83
2018-04-06T11:45:25.644Z,1017.79
2018-04-06T11:46:27.046Z,1017.82
2018-04-06T11:47:28.460Z,1017.83
2018-04-06T11:48:29.875Z,1017.89
2018-04-06T11:49:31.287Z,1017.85
2018-04-06T11:50:32.691Z,1017.85
2018-04-06T11:51:34.091Z,1017.77
2018-04-06T11:52:35.498Z,1017.77
2018-04-06T11:53:36.908Z,1017.73
2018-04-06T11:54:38.313Z,1017.72
2018-04-06T11:55:39.727Z,1017.70
2018-04-06T11:56:41.145Z,1017.68
2018-04-06T11:57:42.548Z,1017.67
2018-04-06T11:58:43.962Z,1017.64
2018-04-06T11:59:45.392Z,1017.64
2018-04-06T12:00:46.784Z,1017.63
2018-04-06T12:01:48.191Z,1017.59
2018-04-06T12:02:49.605Z,1017.65
2018-04-06T12:03:51.022Z,1017.62
2018-04-06T12:04:52.432Z,1017.62
2018-04-06T12:05:53.845Z,1017.60
2018-04-06T12:06:55.260Z,1017.58
2018-04-06T12:07:56.671Z,1017.57
2018-04-06T12:08:58.078Z,1017.58
2018-04-06T12:09:59.485Z,1017.54
2018-04-06T12:11:00.900Z,1017.53
2018-04-06T12:12:02.308Z,1017.52
2018-04-06T12:13:03.781Z,1017.48
2018-04-06T12:14:05.133Z,1017.52
2018-04-06T12:15:06.559Z,1017.53
2018-04-06T12:16:07.957Z,1017.51
2018-04-06T12:17:09.363Z,1017.51
2018-04-06T12:18:10.786Z,1017.58
2018-04-06T12:19:12.195Z,1017.51
2018-04-06T12:20:13.609Z,1017.52
2018-04-06T12:21:15.014Z,1017.52
2018-04-06T12:22:16.419Z,1017.46